Sealand Guayaquil — A8QP3 — position and weather

sailwx.info

Track history (hours):
 
Tides and Currents Weather Stations Pressure Air Temp Water Temp Dewpoint Dewpoint Depression Visibility Wind Speed Wind Dir Waves Ship Positions

Sealand Guayaquil

Last reported at 2018-May-24 21:28 UTC. Time now 2018-Jun-19 00:57 UTC.
Position N 32°36' W 117°30'.
Warning: this ship's position is 25 days out of date.

Length 209 m; draft 8.6 m.

Type: Ship (hazmat cat A). MMSI: 636091626.

Date/timePositionNaut miles runAvg speedWind from/ knotsBaromVisibWave heightAir tempDewpointWater temp
2018-May-24 21:28N 32°36' W 117°30'1119.2
2018-May-24 20:53N 32°45' W 117°38'719.3
2018-May-24 20:30N 32°51' W 117°43'919.1
2018-May-24 20:00N 32°59' W 117°50'1018.4
2018-May-24 19:26N 33°07' W 117°57'27 9.5
2018-May-24 16:36N 33°31' W 118°12'311.8
2018-May-24 16:23N 33°34' W 118°12'411.8
2018-May-24 16:00N 33°38' W 118°14'5 9.7
2018-May-24 15:30N 33°43' W 118°15'1 1.6
2018-May-24 15:00N 33°44' W 118°16'0 0.0
2018-May-24 14:30N 33°44' W 118°16'0 0.0
2018-May-24 14:00N 33°44' W 118°16'0 0.0
2018-May-24 13:30N 33°44' W 118°16'0 0.0
2018-May-24 09:00N 33°44' W 118°16'0 0.0
2018-May-24 08:30N 33°44' W 118°16'0 0.0
2018-May-24 08:00N 33°44' W 118°16'0 0.0
2018-May-24 07:30N 33°44' W 118°16'0 0.0
2018-May-24 07:00N 33°44' W 118°16'0 0.0
2018-May-24 06:30N 33°44' W 118°16'0 0.0
2018-May-24 05:57N 33°44' W 118°16'0 0.0
2018-May-24 05:30N 33°44' W 118°16'0 0.0
2018-May-24 05:00N 33°44' W 118°16'0 0.0
2018-May-24 04:30N 33°44' W 118°16'0 0.0
2018-May-24 04:00N 33°44' W 118°16'0 0.0
2018-May-24 03:30N 33°44' W 118°16'0 0.0
2018-May-24 03:00N 33°44' W 118°16'0 0.0
2018-May-24 02:27N 33°44' W 118°16'0 0.0
2018-May-24 02:00N 33°44' W 118°16'0 0.0
2018-May-24 01:30N 33°44' W 118°16'0 0.0
2018-May-24 01:00N 33°44' W 118°16'0 0.0
2018-May-24 00:30N 33°44' W 118°16'0 0.0
2018-May-24 00:00N 33°44' W 118°16'0 0.0
2018-May-23 23:30N 33°44' W 118°16'0 0.0
2018-May-23 23:00N 33°44' W 118°16'0 0.0
2018-May-23 22:30N 33°44' W 118°16'0 0.0
2018-May-23 22:00N 33°44' W 118°16'0 0.0
2018-May-23 21:30N 33°44' W 118°16'0 0.0
2018-May-23 21:00N 33°44' W 118°16'0 0.0
2018-May-23 20:30N 33°44' W 118°16'0 0.0
2018-May-23 20:00N 33°44' W 118°16'0 0.0
2018-May-23 19:30N 33°44' W 118°16'0 0.0
2018-May-23 19:00N 33°44' W 118°16'0 0.0
2018-May-23 18:30N 33°44' W 118°16'0 0.0
2018-May-23 18:00N 33°44' W 118°16'0 0.0
2018-May-23 17:30N 33°44' W 118°16'0 0.0
2018-May-23 17:00N 33°44' W 118°16'0 0.0
2018-May-23 16:30N 33°44' W 118°16'0 0.0
2018-May-23 16:00N 33°44' W 118°16'0 0.0
2018-May-23 15:30N 33°44' W 118°16'0 0.0
2018-May-23 15:00N 33°44' W 118°16'0 0.0
2018-May-23 14:30N 33°44' W 118°16'0 0.0
2018-May-23 14:00N 33°44' W 118°16'0 0.0
2018-May-23 13:30N 33°44' W 118°16'0 0.0
2018-May-23 13:00N 33°44' W 118°16'0 0.0
2018-May-23 12:30N 33°44' W 118°16'0 0.0
2018-May-23 12:00N 33°44' W 118°16'0 0.0
2018-May-23 11:30N 33°44' W 118°16'0 0.0
2018-May-23 11:00N 33°44' W 118°16'0 0.0
2018-May-23 10:30N 33°44' W 118°16'0 0.0
2018-May-23 10:00N 33°44' W 118°16'0 0.0
2018-May-23 09:30N 33°44' W 118°16'0 0.0
2018-May-23 09:00N 33°44' W 118°16'0 0.2
2018-May-23 08:30N 33°44' W 118°16'3 6.2
2018-May-23 07:59N 33°41' W 118°14'8 7.9
2018-May-23 07:01N 33°37' W 118°22'111.6
2018-May-23 06:56N 33°38' W 118°23'511.5
2018-May-23 06:30N 33°40' W 118°28'611.3
2018-May-23 06:00N 33°43' W 118°34'611.5
2018-May-23 05:28N 33°46' W 118°41'611.8
2018-May-23 04:59N 33°49' W 118°46'712.1
2018-May-23 04:27N 33°52' W 118°53'612.4
2018-May-23 04:00N 33°55' W 118°59'612.3
2018-May-23 03:30N 33°58' W 119°05'612.2
2018-May-23 03:00N 34°01' W 119°12'611.8
2018-May-23 02:28N 34°07' W 119°14'3 1.0
2018-May-22 23:49N 34°09' W 119°12'0 0.0
2018-May-22 17:46N 34°09' W 119°12'0 0.0
2018-May-22 16:01N 34°09' W 119°12'0 0.0
2018-May-22 11:22N 34°09' W 119°12'0 0.0
2018-May-22 10:04N 34°09' W 119°12'0 0.0
2018-May-22 08:40N 34°09' W 119°12'0 0.0
2018-May-22 04:52N 34°09' W 119°12'0 0.0
2018-May-22 00:41N 34°09' W 119°12'0 0.8
2018-May-22 00:30N 34°09' W 119°12'3 6.5
2018-May-22 00:00N 34°06' W 119°15'4 8.0
2018-May-21 23:30N 34°03' W 119°12'712.4
2018-May-21 22:59N 33°60' W 119°05'612.6
2018-May-21 22:30N 33°57' W 118°59'612.5
2018-May-21 22:00N 33°54' W 118°52'3111.7
2018-May-21 19:20N 33°38' W 118°20'411.5
2018-May-21 19:01N 33°38' W 118°15'2311.1
2018-May-21 16:56N 33°17' W 118°02'716.4
2018-May-21 16:30N 33°11' W 117°59'816.4
2018-May-21 16:00N 33°03' W 117°56'816.3
2018-May-21 15:30N 32°55' W 117°53'5 9.0
2018-May-21 15:00N 32°51' W 117°51'816.4
2018-May-21 14:30N 32°43' W 117°48'816.1
2018-May-21 13:59N 32°35' W 117°45'815.7
2018-May-21 13:30N 32°28' W 117°42'  
Track history (hours):
 
Tides and Currents Weather Stations Pressure Air Temp Water Temp Dewpoint Dewpoint Depression Visibility Wind Speed Wind Dir Waves Ship Positions

Sealand Guayaquil

Last reported at 2018-May-24 21:28 UTC. Time now 2018-Jun-19 00:57 UTC.
Position N 32°36' W 117°30'.
Warning: this ship's position is 25 days out of date.

Length 209 m; draft 8.6 m.

Type: Ship (hazmat cat A). MMSI: 636091626.

Date/timePositionNaut miles runAvg speedWind from/ knotsBaromVisibWave heightAir tempDewpointWater temp
2018-May-24 21:28N 32°36' W 117°30'1119.2
2018-May-24 20:53N 32°45' W 117°38'719.3
2018-May-24 20:30N 32°51' W 117°43'919.1
2018-May-24 20:00N 32°59' W 117°50'1018.4
2018-May-24 19:26N 33°07' W 117°57'27 9.5
2018-May-24 16:36N 33°31' W 118°12'311.8
2018-May-24 16:23N 33°34' W 118°12'411.8
2018-May-24 16:00N 33°38' W 118°14'5 9.7
2018-May-24 15:30N 33°43' W 118°15'1 1.6
2018-May-24 15:00N 33°44' W 118°16'0 0.0
2018-May-24 14:30N 33°44' W 118°16'0 0.0
2018-May-24 14:00N 33°44' W 118°16'0 0.0
2018-May-24 13:30N 33°44' W 118°16'0 0.0
2018-May-24 09:00N 33°44' W 118°16'0 0.0
2018-May-24 08:30N 33°44' W 118°16'0 0.0
2018-May-24 08:00N 33°44' W 118°16'0 0.0
2018-May-24 07:30N 33°44' W 118°16'0 0.0
2018-May-24 07:00N 33°44' W 118°16'0 0.0
2018-May-24 06:30N 33°44' W 118°16'0 0.0
2018-May-24 05:57N 33°44' W 118°16'0 0.0
2018-May-24 05:30N 33°44' W 118°16'0 0.0
2018-May-24 05:00N 33°44' W 118°16'0 0.0
2018-May-24 04:30N 33°44' W 118°16'0 0.0
2018-May-24 04:00N 33°44' W 118°16'0 0.0
2018-May-24 03:30N 33°44' W 118°16'0 0.0
2018-May-24 03:00N 33°44' W 118°16'0 0.0
2018-May-24 02:27N 33°44' W 118°16'0 0.0
2018-May-24 02:00N 33°44' W 118°16'0 0.0
2018-May-24 01:30N 33°44' W 118°16'0 0.0
2018-May-24 01:00N 33°44' W 118°16'0 0.0
2018-May-24 00:30N 33°44' W 118°16'0 0.0
2018-May-24 00:00N 33°44' W 118°16'0 0.0
2018-May-23 23:30N 33°44' W 118°16'0 0.0
2018-May-23 23:00N 33°44' W 118°16'0 0.0
2018-May-23 22:30N 33°44' W 118°16'0 0.0
2018-May-23 22:00N 33°44' W 118°16'0 0.0
2018-May-23 21:30N 33°44' W 118°16'0 0.0
2018-May-23 21:00N 33°44' W 118°16'0 0.0
2018-May-23 20:30N 33°44' W 118°16'0 0.0
2018-May-23 20:00N 33°44' W 118°16'0 0.0
2018-May-23 19:30N 33°44' W 118°16'0 0.0
2018-May-23 19:00N 33°44' W 118°16'0 0.0
2018-May-23 18:30N 33°44' W 118°16'0 0.0
2018-May-23 18:00N 33°44' W 118°16'0 0.0
2018-May-23 17:30N 33°44' W 118°16'0 0.0
2018-May-23 17:00N 33°44' W 118°16'0 0.0
2018-May-23 16:30N 33°44' W 118°16'0 0.0
2018-May-23 16:00N 33°44' W 118°16'0 0.0
2018-May-23 15:30N 33°44' W 118°16'0 0.0
2018-May-23 15:00N 33°44' W 118°16'0 0.0
2018-May-23 14:30N 33°44' W 118°16'0 0.0
2018-May-23 14:00N 33°44' W 118°16'0 0.0
2018-May-23 13:30N 33°44' W 118°16'0 0.0
2018-May-23 13:00N 33°44' W 118°16'0 0.0
2018-May-23 12:30N 33°44' W 118°16'0 0.0
2018-May-23 12:00N 33°44' W 118°16'0 0.0
2018-May-23 11:30N 33°44' W 118°16'0 0.0
2018-May-23 11:00N 33°44' W 118°16'0 0.0
2018-May-23 10:30N 33°44' W 118°16'0 0.0
2018-May-23 10:00N 33°44' W 118°16'0 0.0
2018-May-23 09:30N 33°44' W 118°16'0 0.0
2018-May-23 09:00N 33°44' W 118°16'0 0.2
2018-May-23 08:30N 33°44' W 118°16'3 6.2
2018-May-23 07:59N 33°41' W 118°14'8 7.9
2018-May-23 07:01N 33°37' W 118°22'111.6
2018-May-23 06:56N 33°38' W 118°23'511.5
2018-May-23 06:30N 33°40' W 118°28'611.3
2018-May-23 06:00N 33°43' W 118°34'611.5
2018-May-23 05:28N 33°46' W 118°41'611.8
2018-May-23 04:59N 33°49' W 118°46'712.1
2018-May-23 04:27N 33°52' W 118°53'612.4
2018-May-23 04:00N 33°55' W 118°59'612.3
2018-May-23 03:30N 33°58' W 119°05'612.2
2018-May-23 03:00N 34°01' W 119°12'611.8
2018-May-23 02:28N 34°07' W 119°14'3 1.0
2018-May-22 23:49N 34°09' W 119°12'0 0.0
2018-May-22 17:46N 34°09' W 119°12'0 0.0
2018-May-22 16:01N 34°09' W 119°12'0 0.0
2018-May-22 11:22N 34°09' W 119°12'0 0.0
2018-May-22 10:04N 34°09' W 119°12'0 0.0
2018-May-22 08:40N 34°09' W 119°12'0 0.0
2018-May-22 04:52N 34°09' W 119°12'0 0.0
2018-May-22 00:41N 34°09' W 119°12'0 0.8
2018-May-22 00:30N 34°09' W 119°12'3 6.5
2018-May-22 00:00N 34°06' W 119°15'4 8.0
2018-May-21 23:30N 34°03' W 119°12'712.4
2018-May-21 22:59N 33°60' W 119°05'612.6
2018-May-21 22:30N 33°57' W 118°59'612.5
2018-May-21 22:00N 33°54' W 118°52'3111.7
2018-May-21 19:20N 33°38' W 118°20'411.5
2018-May-21 19:01N 33°38' W 118°15'2311.1
2018-May-21 16:56N 33°17' W 118°02'716.4
2018-May-21 16:30N 33°11' W 117°59'816.4
2018-May-21 16:00N 33°03' W 117°56'816.3
2018-May-21 15:30N 32°55' W 117°53'5 9.0
2018-May-21 15:00N 32°51' W 117°51'816.4
2018-May-21 14:30N 32°43' W 117°48'816.1
2018-May-21 13:59N 32°35' W 117°45'815.7
2018-May-21 13:30N 32°28' W 117°42'  

Dump ship's entire track history